createdAt,value
2018-12-17T00:00:46.422Z,55.20
2018-12-17T00:03:13.827Z,59.37
2018-12-17T00:05:41.845Z,52.30
2018-12-17T00:08:09.551Z,49.90
2018-12-17T00:10:36.961Z,54.47
2018-12-17T00:13:04.374Z,57.30
2018-12-17T00:15:31.794Z,61.05
2018-12-17T00:17:59.220Z,64.73
2018-12-17T00:20:26.646Z,59.93
2018-12-17T00:22:54.070Z,59.45
2018-12-17T00:25:21.473Z,55.30
2018-12-17T00:27:48.888Z,48.90
2018-12-17T00:30:16.307Z,46.02
2018-12-17T00:32:43.711Z,46.90
2018-12-17T00:35:11.146Z,54.33
2018-12-17T00:37:38.548Z,47.75
2018-12-17T00:40:07.064Z,56.07
2018-12-17T00:42:34.467Z,59.00
2018-12-17T00:45:01.883Z,60.85
2018-12-17T00:47:29.376Z,58.57
2018-12-17T00:49:56.794Z,55.03
2018-12-17T00:52:24.232Z,51.73
2018-12-17T00:54:51.637Z,55.73
2018-12-17T00:57:19.054Z,60.10
2018-12-17T00:59:46.474Z,58.40
2018-12-17T01:02:13.883Z,58.20
2018-12-17T01:04:41.291Z,64.10
2018-12-17T01:07:08.697Z,54.83
2018-12-17T01:09:36.099Z,55.85
2018-12-17T01:12:03.517Z,58.40
2018-12-17T01:14:30.906Z,54.37
2018-12-17T01:16:58.321Z,57.07
2018-12-17T01:19:26.418Z,57.53
2018-12-17T01:21:54.128Z,57.33
2018-12-17T01:24:21.539Z,59.90
2018-12-17T01:26:48.969Z,54.50
2018-12-17T01:29:16.372Z,55.10
2018-12-17T01:31:43.796Z,54.07
2018-12-17T01:34:11.241Z,50.57
2018-12-17T01:36:38.617Z,61.33
2018-12-17T01:39:06.251Z,53.40
2018-12-17T01:41:33.660Z,59.00
2018-12-17T01:44:01.063Z,61.70
2018-12-17T01:46:28.494Z,59.00
2018-12-17T01:48:55.890Z,51.87
2018-12-17T01:51:23.313Z,53.73
2018-12-17T01:53:50.718Z,64.82
2018-12-17T01:56:18.131Z,54.60
2018-12-17T01:58:45.648Z,58.10
2018-12-17T02:01:13.132Z,54.20
2018-12-17T02:03:41.633Z,57.23
2018-12-17T02:06:09.062Z,58.73
2018-12-17T02:08:36.557Z,59.98
2018-12-17T02:11:04.754Z,52.62
2018-12-17T02:13:32.177Z,54.77
2018-12-17T02:15:59.601Z,54.70
2018-12-17T02:18:27.000Z,61.80
2018-12-17T02:20:54.430Z,65.37
2018-12-17T02:23:21.836Z,58.48
2018-12-17T02:25:49.254Z,60.15
2018-12-17T02:28:16.659Z,57.05
2018-12-17T02:30:44.066Z,59.40
2018-12-17T02:33:11.460Z,65.00
2018-12-17T02:35:38.870Z,57.08
2018-12-17T02:38:06.265Z,58.47
2018-12-17T02:40:33.674Z,62.23
2018-12-17T02:43:01.083Z,68.70
2018-12-17T02:45:28.495Z,64.90
2018-12-17T02:47:55.978Z,60.00
2018-12-17T02:50:23.411Z,61.92
2018-12-17T02:52:50.810Z,68.30
2018-12-17T02:55:18.229Z,62.23
2018-12-17T02:57:45.625Z,65.27
2018-12-17T03:00:13.133Z,59.87
2018-12-17T03:02:40.526Z,58.90
2018-12-17T03:05:08.031Z,56.20
2018-12-17T03:07:35.439Z,55.97
2018-12-17T03:10:02.942Z,53.50
2018-12-17T03:12:30.338Z,54.43
2018-12-17T03:14:57.742Z,48.67
2018-12-17T03:17:25.153Z,56.07
2018-12-17T03:19:52.549Z,55.07
2018-12-17T03:22:19.953Z,55.00
2018-12-17T03:24:47.363Z,52.97
2018-12-17T03:27:14.769Z,56.27
2018-12-17T03:29:42.262Z,66.40
2018-12-17T03:32:09.672Z,63.77
2018-12-17T03:34:37.139Z,57.87
2018-12-17T03:37:04.564Z,55.67
2018-12-17T03:39:32.065Z,60.00
2018-12-17T03:41:59.501Z,59.43
2018-12-17T03:44:26.993Z,60.60
2018-12-17T03:46:54.404Z,59.20
2018-12-17T03:49:21.825Z,64.30
2018-12-17T03:51:49.235Z,62.27
2018-12-17T03:54:16.625Z,61.60
2018-12-17T03:56:44.050Z,62.27
2018-12-17T03:59:11.458Z,66.07
2018-12-17T04:01:38.849Z,58.17
2018-12-17T04:04:06.247Z,53.77
2018-12-17T04:06:33.650Z,56.35
2018-12-17T04:09:01.038Z,57.00
2018-12-17T04:11:28.427Z,61.47
2018-12-17T04:13:55.821Z,63.30
2018-12-17T04:16:23.236Z,63.23
2018-12-17T04:18:50.755Z,61.23
2018-12-17T04:21:18.182Z,62.20
2018-12-17T04:23:45.686Z,64.92
2018-12-17T04:26:13.163Z,55.57
2018-12-17T04:28:40.661Z,53.70
2018-12-17T04:31:08.050Z,59.73
2018-12-17T04:33:35.452Z,62.27
2018-12-17T04:36:02.859Z,62.57
2018-12-17T04:38:30.250Z,59.87
2018-12-17T04:40:57.694Z,70.70
2018-12-17T04:43:25.106Z,61.40
2018-12-17T04:45:52.510Z,68.90
2018-12-17T04:48:19.911Z,64.50
2018-12-17T04:50:47.374Z,67.05
2018-12-17T04:53:14.791Z,67.80
2018-12-17T04:55:42.218Z,80.45
2018-12-17T04:58:09.626Z,58.45
2018-12-17T05:00:37.044Z,77.17
2018-12-17T05:03:04.457Z,62.70
2018-12-17T05:05:31.966Z,74.10
2018-12-17T05:07:59.390Z,74.50
2018-12-17T05:10:26.797Z,89.83
2018-12-17T05:12:54.218Z,86.97
2018-12-17T05:15:21.623Z,65.67
2018-12-17T05:17:49.043Z,70.10
2018-12-17T05:20:16.439Z,78.13
2018-12-17T05:22:43.854Z,84.00
2018-12-17T05:25:11.276Z,98.10
2018-12-17T05:27:38.779Z,93.40
2018-12-17T05:30:06.579Z,79.03
2018-12-17T05:32:33.981Z,93.25
2018-12-17T05:35:01.473Z,101.87
2018-12-17T05:37:28.955Z,82.57
2018-12-17T05:39:56.357Z,93.43
2018-12-17T05:42:23.761Z,96.67
2018-12-17T05:44:51.170Z,99.47
2018-12-17T05:47:18.654Z,92.83
2018-12-17T05:49:46.048Z,96.00
2018-12-17T05:52:13.522Z,81.07
2018-12-17T05:54:40.923Z,97.97
2018-12-17T05:57:08.320Z,85.38
2018-12-17T05:59:35.721Z,109.23
2018-12-17T06:02:03.127Z,93.40
2018-12-17T06:04:30.550Z,100.07
2018-12-17T06:06:57.943Z,90.90
2018-12-17T06:09:25.519Z,102.90
2018-12-17T06:11:53.097Z,94.57
2018-12-17T06:14:20.497Z,104.00
2018-12-17T06:16:47.891Z,110.70
2018-12-17T06:19:15.300Z,116.90
2018-12-17T06:21:42.698Z,107.77
2018-12-17T06:24:10.101Z,134.10
2018-12-17T06:26:37.510Z,128.67
2018-12-17T06:29:04.907Z,121.87
2018-12-17T06:31:32.334Z,119.45
2018-12-17T06:33:59.744Z,119.60
2018-12-17T06:36:27.144Z,111.63
2018-12-17T06:38:54.543Z,104.40
2018-12-17T06:41:21.972Z,108.17
2018-12-17T06:43:49.365Z,99.90
2018-12-17T06:46:16.791Z,101.77
2018-12-17T06:48:44.185Z,127.77
2018-12-17T06:51:11.574Z,110.37
2018-12-17T06:53:39.683Z,119.83
2018-12-17T06:56:07.111Z,124.33
2018-12-17T06:58:34.506Z,109.73
2018-12-17T07:01:01.897Z,122.62
2018-12-17T07:03:29.307Z,122.40
2018-12-17T07:05:56.695Z,105.77
2018-12-17T07:08:24.097Z,110.30
2018-12-17T07:10:51.497Z,123.38
2018-12-17T07:13:18.908Z,105.50
2018-12-17T07:15:46.304Z,98.60
2018-12-17T07:18:13.706Z,108.63
2018-12-17T07:20:41.188Z,104.90
2018-12-17T07:23:08.582Z,103.30
2018-12-17T07:25:35.990Z,128.00
2018-12-17T07:28:03.388Z,100.05
2018-12-17T07:30:30.782Z,101.67
2018-12-17T07:32:58.187Z,100.87
2018-12-17T07:35:25.593Z,123.07
2018-12-17T07:37:53.015Z,106.90
2018-12-17T07:40:20.419Z,115.17
2018-12-17T07:42:47.814Z,114.67
2018-12-17T07:45:15.227Z,94.53
2018-12-17T07:47:42.644Z,113.00
2018-12-17T07:50:10.042Z,108.67
2018-12-17T07:52:37.436Z,121.27
2018-12-17T07:55:05.147Z,113.43
2018-12-17T07:57:32.553Z,119.07
2018-12-17T07:59:59.946Z,135.90
2018-12-17T08:02:27.360Z,117.35
2018-12-17T08:04:54.762Z,109.63
2018-12-17T08:07:22.163Z,105.37
2018-12-17T08:09:49.890Z,113.23
2018-12-17T08:12:17.289Z,112.63
2018-12-17T08:14:44.692Z,112.30
2018-12-17T08:17:12.222Z,109.17
2018-12-17T08:19:39.628Z,106.70
2018-12-17T08:22:07.111Z,99.30
2018-12-17T08:24:34.606Z,92.20
2018-12-17T08:27:02.007Z,104.97
2018-12-17T08:29:29.495Z,118.23
2018-12-17T08:31:56.916Z,94.85
2018-12-17T08:34:24.336Z,96.47
2018-12-17T08:36:51.739Z,91.23
2018-12-17T08:39:19.136Z,115.63
2018-12-17T08:41:46.550Z,103.07
2018-12-17T08:44:14.032Z,102.97
2018-12-17T08:46:41.528Z,103.60
2018-12-17T08:49:08.926Z,98.17
2018-12-17T08:51:36.561Z,93.77
2018-12-17T08:54:03.957Z,117.20
2018-12-17T08:56:31.452Z,84.13
2018-12-17T08:58:58.842Z,99.20
2018-12-17T09:01:26.241Z,88.10
2018-12-17T09:03:53.642Z,93.42
2018-12-17T09:06:21.039Z,91.97
2018-12-17T09:08:48.445Z,103.90
2018-12-17T09:11:15.845Z,101.13
2018-12-17T09:13:43.512Z,100.78
2018-12-17T09:16:10.903Z,98.37
2018-12-17T09:18:38.308Z,103.37
2018-12-17T09:21:05.706Z,107.67
2018-12-17T09:23:33.103Z,112.00
2018-12-17T09:26:00.521Z,103.17
2018-12-17T09:28:27.926Z,109.20
2018-12-17T09:30:55.327Z,100.23
2018-12-17T09:33:22.735Z,102.63
2018-12-17T09:35:50.147Z,121.60
2018-12-17T09:38:17.546Z,114.52
2018-12-17T09:40:44.960Z,116.83
2018-12-17T09:43:12.373Z,115.43
2018-12-17T09:45:39.788Z,116.83
2018-12-17T09:48:07.186Z,117.13
2018-12-17T09:50:34.598Z,107.80
2018-12-17T09:53:02.097Z,125.10
2018-12-17T09:55:29.502Z,122.17
2018-12-17T09:57:56.915Z,120.35
2018-12-17T10:00:25.604Z,118.35
2018-12-17T10:02:53.304Z,128.97
2018-12-17T10:05:20.705Z,122.37
2018-12-17T10:07:48.179Z,130.00
2018-12-17T10:10:15.572Z,127.42
2018-12-17T10:12:42.958Z,125.95
2018-12-17T10:15:10.361Z,142.40
2018-12-17T10:17:37.750Z,128.93
2018-12-17T10:20:05.548Z,114.37
2018-12-17T10:22:32.934Z,154.65
2018-12-17T10:25:00.320Z,120.20
2018-12-17T10:27:27.706Z,135.87
2018-12-17T10:29:55.097Z,113.70
2018-12-17T10:32:22.507Z,112.52
2018-12-17T10:34:49.915Z,151.37
2018-12-17T10:37:17.323Z,146.93
2018-12-17T10:39:44.715Z,135.43
2018-12-17T10:42:12.124Z,133.40
2018-12-17T10:44:39.518Z,126.23
2018-12-17T10:47:06.912Z,133.00
2018-12-17T10:49:34.402Z,138.92
2018-12-17T10:52:01.804Z,140.63
2018-12-17T10:54:29.203Z,134.77
2018-12-17T10:56:56.799Z,136.85
2018-12-17T10:59:24.213Z,139.20
2018-12-17T11:01:54.387Z,134.67
2018-12-17T11:04:23.681Z,130.23
2018-12-17T11:06:51.088Z,151.00
2018-12-17T11:09:18.486Z,131.87
2018-12-17T11:11:45.885Z,140.17
2018-12-17T11:14:13.270Z,137.30
2018-12-17T11:16:40.670Z,131.80
2018-12-17T11:19:08.057Z,136.60
2018-12-17T11:21:35.458Z,145.43
2018-12-17T11:24:02.932Z,152.43
2018-12-17T11:26:30.331Z,135.07
2018-12-17T11:28:57.738Z,151.43
2018-12-17T11:31:25.246Z,170.70
2018-12-17T11:33:52.640Z,133.90
2018-12-17T11:36:20.048Z,149.27
2018-12-17T11:38:47.453Z,149.33
2018-12-17T11:41:14.855Z,132.15
2018-12-17T11:43:43.918Z,147.50
2018-12-17T11:46:11.671Z,161.30
2018-12-17T11:48:39.662Z,159.87
2018-12-17T11:51:07.051Z,140.30
2018-12-17T11:53:34.454Z,129.67
2018-12-17T11:56:01.841Z,149.10
2018-12-17T11:58:29.241Z,141.43
2018-12-17T12:00:57.639Z,126.70
2018-12-17T12:03:25.038Z,124.60
2018-12-17T12:05:52.431Z,122.80
2018-12-17T12:08:19.830Z,132.30
2018-12-17T12:10:47.313Z,131.67
2018-12-17T12:13:14.711Z,145.25
2018-12-17T12:15:42.104Z,132.22
2018-12-17T12:18:09.507Z,141.57
2018-12-17T12:20:36.909Z,122.17
2018-12-17T12:23:04.337Z,120.87
2018-12-17T12:25:31.730Z,136.50
2018-12-17T12:27:59.126Z,136.15
2018-12-17T12:30:26.514Z,146.60
2018-12-17T12:32:53.914Z,142.72
2018-12-17T12:35:21.304Z,126.78
2018-12-17T12:37:48.701Z,141.85
2018-12-17T12:40:16.110Z,136.28
2018-12-17T12:42:43.504Z,121.83
2018-12-17T12:45:10.973Z,136.03
2018-12-17T12:47:38.365Z,120.25
2018-12-17T12:50:07.890Z,112.93
2018-12-17T12:52:35.278Z,131.27
2018-12-17T12:55:02.721Z,129.68
2018-12-17T12:57:30.111Z,100.53
2018-12-17T12:59:57.500Z,132.83
2018-12-17T13:02:24.906Z,108.00
2018-12-17T13:04:52.300Z,118.05
2018-12-17T13:07:19.688Z,139.28
2018-12-17T13:09:47.093Z,128.33
2018-12-17T13:12:14.502Z,123.87
2018-12-17T13:14:41.902Z,130.57
2018-12-17T13:17:30.074Z,101.73
2018-12-17T13:19:57.474Z,117.73
2018-12-17T13:22:24.865Z,108.43
2018-12-17T13:24:52.264Z,117.30
2018-12-17T13:27:19.671Z,111.15
2018-12-17T13:29:47.071Z,156.93
2018-12-17T13:32:14.470Z,119.43
2018-12-17T13:34:41.880Z,115.20
2018-12-17T13:37:09.354Z,111.97
2018-12-17T13:39:36.778Z,112.87
2018-12-17T13:42:04.182Z,104.43
2018-12-17T13:44:31.580Z,103.47
2018-12-17T13:46:58.973Z,109.90
2018-12-17T13:49:26.364Z,113.27
2018-12-17T13:51:59.309Z,119.83
2018-12-17T13:54:26.710Z,129.07
2018-12-17T13:56:54.092Z,116.15
2018-12-17T13:59:21.500Z,110.97
2018-12-17T14:01:51.662Z,117.00
2018-12-17T14:04:18.279Z,114.05
2018-12-17T14:06:45.689Z,138.03
2018-12-17T14:09:13.086Z,117.80
2018-12-17T14:11:40.477Z,122.27
2018-12-17T14:14:07.870Z,126.37
2018-12-17T14:16:40.968Z,116.07
2018-12-17T14:19:14.028Z,127.53
2018-12-17T14:21:47.140Z,131.40
2018-12-17T14:24:14.522Z,137.70
2018-12-17T14:26:41.989Z,140.33
2018-12-17T14:29:09.392Z,125.42
2018-12-17T14:31:36.786Z,137.90
2018-12-17T14:34:04.188Z,127.63
2018-12-17T14:36:31.596Z,133.73
2018-12-17T14:38:59.021Z,131.07
2018-12-17T14:41:26.488Z,138.87
2018-12-17T14:43:55.866Z,132.93
2018-12-17T14:46:23.255Z,139.30
2018-12-17T14:48:50.657Z,124.30
2018-12-17T14:51:18.065Z,168.00
2018-12-17T14:53:45.555Z,129.23
2018-12-17T14:56:12.951Z,157.05
2018-12-17T14:58:44.421Z,133.53
2018-12-17T15:01:09.770Z,140.70
2018-12-17T15:03:37.180Z,133.50
2018-12-17T15:06:04.561Z,133.00
2018-12-17T15:08:31.974Z,143.40
2018-12-17T15:10:59.361Z,137.00
2018-12-17T15:13:26.805Z,125.67
2018-12-17T15:15:54.195Z,146.40
2018-12-17T15:18:21.587Z,133.43
2018-12-17T15:20:48.986Z,128.00
2018-12-17T15:23:16.386Z,134.97
2018-12-17T15:25:43.865Z,105.50
2018-12-17T15:28:11.275Z,136.40
2018-12-17T15:30:38.674Z,136.10
2018-12-17T15:33:06.054Z,139.60
2018-12-17T15:35:33.445Z,142.70
2018-12-17T15:38:00.834Z,137.23
2018-12-17T15:40:28.239Z,151.37
2018-12-17T15:42:55.698Z,111.17
2018-12-17T15:45:23.100Z,127.05
2018-12-17T15:47:50.584Z,129.83
2018-12-17T15:50:17.970Z,144.45
2018-12-17T15:52:45.378Z,147.97
2018-12-17T15:55:12.784Z,117.47
2018-12-17T15:57:40.239Z,134.70
2018-12-17T16:00:09.242Z,129.43
2018-12-17T16:02:36.721Z,140.62
2018-12-17T16:05:05.530Z,123.00
2018-12-17T16:07:33.017Z,136.97
2018-12-17T16:10:00.418Z,161.07
2018-12-17T16:12:27.920Z,119.00
2018-12-17T16:14:55.308Z,155.93
2018-12-17T16:17:22.729Z,124.60
2018-12-17T16:19:50.133Z,138.80
2018-12-17T16:22:17.534Z,128.93
2018-12-17T16:24:44.926Z,136.87
2018-12-17T16:27:19.029Z,129.13
2018-12-17T16:29:41.691Z,120.03
2018-12-17T16:32:09.549Z,113.62
2018-12-17T16:34:36.948Z,138.63
2018-12-17T16:37:04.541Z,123.85
2018-12-17T16:39:31.939Z,116.12
2018-12-17T16:41:59.335Z,141.28
2018-12-17T16:44:26.731Z,131.97
2018-12-17T16:46:54.199Z,130.27
2018-12-17T16:49:21.604Z,122.00
2018-12-17T16:51:48.990Z,129.87
2018-12-17T16:54:16.388Z,117.67
2018-12-17T16:56:43.782Z,112.93
2018-12-17T16:59:11.174Z,123.07
2018-12-17T17:01:38.563Z,105.80
2018-12-17T17:04:05.969Z,118.43
2018-12-17T17:06:33.363Z,109.57
2018-12-17T17:09:00.751Z,130.03
2018-12-17T17:11:28.142Z,110.20
2018-12-17T17:13:55.535Z,107.70
2018-12-17T17:16:22.926Z,122.73
2018-12-17T17:18:50.312Z,119.97
2018-12-17T17:21:17.707Z,107.43
2018-12-17T17:23:45.126Z,111.57
2018-12-17T17:26:12.522Z,116.00
2018-12-17T17:28:39.913Z,127.40
2018-12-17T17:31:07.348Z,115.30
2018-12-17T17:33:34.732Z,121.82
2018-12-17T17:36:02.235Z,112.37
2018-12-17T17:38:29.655Z,109.77
2018-12-17T17:40:57.042Z,112.75
2018-12-17T17:43:24.447Z,114.03
2018-12-17T17:45:51.839Z,97.93
2018-12-17T17:48:19.321Z,114.22
2018-12-17T17:50:46.808Z,106.17
2018-12-17T17:53:14.202Z,105.87
2018-12-17T17:55:41.606Z,107.13
2018-12-17T17:58:09.014Z,120.73
2018-12-17T18:00:36.413Z,109.73
2018-12-17T18:03:04.718Z,103.80
2018-12-17T18:05:32.124Z,116.35
2018-12-17T18:07:59.575Z,104.83
2018-12-17T18:10:26.990Z,93.27
2018-12-17T18:12:54.373Z,94.90
2018-12-17T18:15:22.170Z,100.73
2018-12-17T18:17:49.605Z,107.97
2018-12-17T18:20:16.989Z,110.13
2018-12-17T18:22:44.377Z,99.80
2018-12-17T18:25:11.769Z,102.17
2018-12-17T18:27:39.153Z,107.78
2018-12-17T18:30:06.683Z,98.33
2018-12-17T18:32:34.080Z,99.70
2018-12-17T18:35:01.474Z,105.53
2018-12-17T18:37:28.949Z,93.00
2018-12-17T18:39:56.523Z,94.57
2018-12-17T18:42:23.958Z,102.20
2018-12-17T18:44:51.369Z,90.13
2018-12-17T18:47:25.439Z,97.63
2018-12-17T18:49:48.128Z,101.20
2018-12-17T18:52:16.333Z,92.47
2018-12-17T18:54:43.724Z,98.22
2018-12-17T18:57:11.156Z,103.87
2018-12-17T18:59:38.554Z,102.80
2018-12-17T19:02:06.955Z,96.92
2018-12-17T19:04:34.351Z,96.90
2018-12-17T19:07:01.752Z,97.85
2018-12-17T19:09:29.299Z,87.78
2018-12-17T19:11:56.726Z,97.15
2018-12-17T19:14:24.115Z,92.60
2018-12-17T19:16:51.535Z,95.22
2018-12-17T19:19:19.018Z,91.00
2018-12-17T19:21:46.419Z,99.58
2018-12-17T19:24:13.818Z,99.77
2018-12-17T19:26:41.210Z,88.05
2018-12-17T19:29:08.622Z,100.30
2018-12-17T19:31:36.048Z,92.03
2018-12-17T19:34:03.445Z,78.50
2018-12-17T19:36:30.831Z,98.50
2018-12-17T19:38:58.311Z,103.50
2018-12-17T19:41:25.705Z,93.80
2018-12-17T19:43:53.094Z,98.73
2018-12-17T19:46:20.509Z,101.00
2018-12-17T19:48:47.917Z,102.33
2018-12-17T19:51:15.490Z,88.17
2018-12-17T19:53:43.419Z,92.35
2018-12-17T19:56:10.814Z,104.53
2018-12-17T19:58:38.217Z,97.40
2018-12-17T20:01:05.785Z,92.42
2018-12-17T20:03:33.172Z,90.30
2018-12-17T20:06:00.643Z,84.50
2018-12-17T20:08:28.166Z,87.90
2018-12-17T20:10:55.556Z,89.23
2018-12-17T20:13:22.950Z,95.83
2018-12-17T20:15:50.325Z,97.33
2018-12-17T20:18:17.733Z,84.70
2018-12-17T20:20:45.149Z,90.60
2018-12-17T20:23:12.542Z,101.62
2018-12-17T20:25:39.934Z,92.80
2018-12-17T20:28:07.325Z,87.37
2018-12-17T20:30:34.704Z,98.53
2018-12-17T20:33:02.086Z,90.45
2018-12-17T20:35:29.569Z,91.03
2018-12-17T20:37:57.016Z,82.33
2018-12-17T20:40:24.450Z,93.52
2018-12-17T20:42:51.826Z,72.53
2018-12-17T20:45:19.319Z,75.50
2018-12-17T20:47:46.722Z,83.25
2018-12-17T20:50:14.240Z,75.53
2018-12-17T20:52:41.694Z,85.63
2018-12-17T20:55:09.094Z,87.40
2018-12-17T20:57:36.487Z,73.03
2018-12-17T21:00:06.067Z,78.33
2018-12-17T21:02:33.460Z,76.17
2018-12-17T21:05:00.865Z,80.73
2018-12-17T21:07:28.279Z,78.93
2018-12-17T21:09:55.672Z,89.47
2018-12-17T21:12:23.080Z,90.07
2018-12-17T21:14:50.458Z,85.37
2018-12-17T21:17:17.850Z,96.17
2018-12-17T21:19:45.256Z,90.92
2018-12-17T21:22:12.646Z,83.53
2018-12-17T21:24:40.037Z,84.47
2018-12-17T21:27:07.428Z,89.17
2018-12-17T21:29:34.818Z,107.72
2018-12-17T21:32:02.207Z,100.47
2018-12-17T21:34:29.618Z,100.80
2018-12-17T21:36:57.008Z,115.30
2018-12-17T21:39:24.408Z,104.50
2018-12-17T21:41:51.802Z,107.55
2018-12-17T21:44:19.190Z,105.70
2018-12-17T21:46:46.606Z,123.38
2018-12-17T21:49:14.011Z,103.75
2018-12-17T21:51:41.382Z,98.60
2018-12-17T21:54:08.794Z,99.73
2018-12-17T21:56:36.175Z,93.90
2018-12-17T21:59:03.562Z,106.43
2018-12-17T22:01:30.959Z,104.43
2018-12-17T22:03:58.369Z,109.00
2018-12-17T22:06:25.752Z,108.70
2018-12-17T22:08:53.142Z,114.93
2018-12-17T22:11:20.555Z,104.00
2018-12-17T22:13:47.961Z,103.30
2018-12-17T22:16:15.430Z,121.00
2018-12-17T22:18:42.826Z,123.25
2018-12-17T22:21:10.206Z,126.70
2018-12-17T22:23:37.621Z,106.47
2018-12-17T22:26:05.009Z,113.23
2018-12-17T22:28:32.417Z,118.13
2018-12-17T22:30:59.809Z,125.67
2018-12-17T22:33:27.210Z,108.23
2018-12-17T22:35:54.609Z,134.90
2018-12-17T22:38:22.033Z,127.63
2018-12-17T22:40:49.429Z,122.70
2018-12-17T22:43:16.821Z,128.03
2018-12-17T22:45:44.314Z,130.60
2018-12-17T22:48:11.700Z,123.07
2018-12-17T22:50:39.100Z,117.57
2018-12-17T22:53:06.501Z,127.72
2018-12-17T22:55:33.894Z,130.63
2018-12-17T22:58:01.323Z,129.23
2018-12-17T23:00:28.730Z,127.35
2018-12-17T23:02:56.122Z,146.70
2018-12-17T23:05:23.514Z,120.83
2018-12-17T23:07:50.943Z,138.55
2018-12-17T23:10:32.037Z,114.35
2018-12-17T23:13:11.329Z,147.68
2018-12-17T23:15:50.754Z,125.57
2018-12-17T23:18:17.686Z,129.67
2018-12-17T23:20:45.081Z,148.20
2018-12-17T23:23:12.481Z,139.03
2018-12-17T23:25:39.871Z,138.62
2018-12-17T23:28:08.183Z,125.55
2018-12-17T23:30:35.596Z,139.00
2018-12-17T23:33:02.987Z,136.80
2018-12-17T23:35:30.389Z,146.60
2018-12-17T23:37:57.790Z,149.57
2018-12-17T23:40:25.185Z,133.25
2018-12-17T23:42:52.592Z,147.17
2018-12-17T23:45:20.088Z,147.55
2018-12-17T23:47:47.892Z,140.45
2018-12-17T23:50:15.302Z,156.30
2018-12-17T23:52:42.691Z,153.13
2018-12-17T23:55:10.081Z,153.20
2018-12-17T23:57:37.474Z,150.85
